Close

Questo sito utlizza cookie. Può leggere come li usiamo nella nostra Privacy Policy.

Ronchi Tower
Ronchi Tower

From Facebook

METAR & TAF

2018/09/23 06:20 LIPQ 230620Z 36004KT 320V030 9999 BKN020 16/15 Q1018
2018/09/23 06:52 TAF LIPQ 230500Z 2306/2406 VRB04KT 9999 SCT030
2018/09/23 06:20 LIPZ 230620Z 02008KT 9999 BKN018 17/13 Q1018 NOSIG
2018/09/23 06:40 TAF LIPZ 230500Z 2306/2412 VRB04KT CAVOK BECMG 2308/2311 06012KT BECMG 2317/2319 VRB04KT TEMPO 2401/2406 3000 BR
2018/09/23 06:20 LIPH 230620Z 01003KT 340V070 9999 BKN018 18/14 Q1018
2018/09/23 06:39 TAF LIPH 230500Z 2306/2406 VRB05KT 9999 SCT030
2018/09/23 06:20 LIRF 230620Z 08005KT 8000 NSC 20/19 Q1019 NOSIG
2018/09/23 06:40 TAF LIRF 230500Z 2306/2412 VRB04KT CAVOK BECMG 2308/2310 26010KT BECMG 2320/2322 VRB05KT
2018/09/23 06:20 LIML 230620Z 09004KT 060V130 CAVOK 19/15 Q1018 NOSIG
2018/09/23 06:40 TAF LIML 230500Z 2306/2406 VRB05KT CAVOK BECMG 2404/2406 35010KT
2018/09/23 06:20 EDDM 230620Z 18004KT 130V220 4000 -RADZ BR SCT003 BKN005 OVC016 12/11 Q1017 NOSIG
2018/09/23 06:51 TAF EDDM 230500Z 2306/2412 21005KT 3500 -RADZ BKN008 BECMG 2307/2309 23010KT 9999 SCT035 BECMG 2310/2312 25015G25KT BECMG 2312/2314 25020G35KT BECMG 2316/2318 25025G45KT PROB30 TEMPO 2318/2320 26030G50KT TSRA BKN030CB TEMPO 2320/2323 29040G55KT 4000 RA BKN012 BECMG 2322/2324 30015G25KT BECMG 2401/2403 28010KT BECMG 2409/2411 29015G25KT
2018/09/23 06:20 EGSS 230620Z AUTO 01006KT 4100 RA BKN004 BKN027 BKN034 09/08 Q1013 REDZ
2018/09/23 06:47 TAF AMD EGSS 230639Z 2306/2412 02008KT 9999 SCT025 BECMG 2306/2309 32010KT -RA BKN011 TEMPO 2306/2313 4000 RA BKN009 PROB30 TEMPO 2306/2312 BKN004 BECMG 2313/2315 NSW SCT035 TEMPO 2313/2318 33015G25KT

FlightRadar24

Radar Meteo

Traffic data

Marzo 2018

Passeggeri: 57555-3,4% (rank: 23)
Nazionali 39679 +1,0% 21°
Internazionali 17689 -11,7% 23°

Movimenti: 1074-16,3% (rank: 21)
Tot commerciale 653 -10,3% 22°
Aviazione generale 421 -24,1%

Cargo (tons): 96,3109,5% (rank: 18)

Gennaio - Marzo 2018

Passeggeri: 155953-1,4% (rank: 23)
Nazionali 108431 +3,9% 21°
Internazionali 47066 -11,5% 22°

Movimenti: 3163-14,5% (rank: 21)
Tot commerciale 1876 -7,3% 21°
Aviazione generale 1287 -23,3%

Cargo (tons): 125,6+16,7% (rank: 21)

Photo

Douglas DC-6B
Douglas DC-6B
Distinct views: 16
Douglas DC-6B
Douglas DC-6B
Distinct views: 54
Douglas DC-6B
Douglas DC-6B
Distinct views: 139
Piper PA-34 Seneca V
Piper PA-34 Seneca V
Total views: 767